sensor_id;sensor_type;location;lat;lon;timestamp;P1;durP1;ratioP1;P2;durP2;ratioP2
10880;SDS011;5493;48.884;8.338;2023-11-21T00:00:40;1.03;;;0.67;;
10880;SDS011;5493;48.884;8.338;2023-11-21T00:03:08;3.83;;;1.40;;
10880;SDS011;5493;48.884;8.338;2023-11-21T00:05:36;2.63;;;1.10;;
10880;SDS011;5493;48.884;8.338;2023-11-21T00:08:03;5.97;;;1.00;;
10880;SDS011;5493;48.884;8.338;2023-11-21T00:10:30;1.13;;;0.60;;
10880;SDS011;5493;48.884;8.338;2023-11-21T00:12:56;1.97;;;0.90;;
10880;SDS011;5493;48.884;8.338;2023-11-21T00:15:23;2.50;;;1.00;;
10880;SDS011;5493;48.884;8.338;2023-11-21T00:17:50;1.07;;;0.70;;
10880;SDS011;5493;48.884;8.338;2023-11-21T00:20:17;1.30;;;0.70;;
10880;SDS011;5493;48.884;8.338;2023-11-21T00:22:44;1.57;;;0.90;;
10880;SDS011;5493;48.884;8.338;2023-11-21T00:25:11;4.97;;;1.13;;
10880;SDS011;5493;48.884;8.338;2023-11-21T00:27:40;1.93;;;1.20;;
10880;SDS011;5493;48.884;8.338;2023-11-21T00:30:08;1.63;;;1.10;;
10880;SDS011;5493;48.884;8.338;2023-11-21T00:32:35;2.20;;;0.80;;
10880;SDS011;5493;48.884;8.338;2023-11-21T00:35:02;1.50;;;0.80;;
10880;SDS011;5493;48.884;8.338;2023-11-21T00:37:30;3.60;;;0.93;;
10880;SDS011;5493;48.884;8.338;2023-11-21T00:39:57;2.83;;;1.03;;
10880;SDS011;5493;48.884;8.338;2023-11-21T00:42:23;1.73;;;0.60;;
10880;SDS011;5493;48.884;8.338;2023-11-21T00:44:50;1.10;;;0.60;;
10880;SDS011;5493;48.884;8.338;2023-11-21T00:47:16;2.60;;;0.90;;
10880;SDS011;5493;48.884;8.338;2023-11-21T00:49:43;3.20;;;0.97;;
10880;SDS011;5493;48.884;8.338;2023-11-21T00:52:09;2.10;;;1.13;;
10880;SDS011;5493;48.884;8.338;2023-11-21T00:54:37;0.67;;;0.60;;
10880;SDS011;5493;48.884;8.338;2023-11-21T00:57:04;3.07;;;1.20;;
10880;SDS011;5493;48.884;8.338;2023-11-21T00:59:31;1.03;;;0.53;;
10880;SDS011;5493;48.884;8.338;2023-11-21T01:01:57;2.17;;;0.67;;
10880;SDS011;5493;48.884;8.338;2023-11-21T01:04:25;2.67;;;0.93;;
10880;SDS011;5493;48.884;8.338;2023-11-21T01:06:52;2.30;;;0.80;;
10880;SDS011;5493;48.884;8.338;2023-11-21T01:09:18;3.30;;;0.93;;
10880;SDS011;5493;48.884;8.338;2023-11-21T01:11:46;3.70;;;0.60;;
10880;SDS011;5493;48.884;8.338;2023-11-21T01:14:13;1.17;;;0.40;;
10880;SDS011;5493;48.884;8.338;2023-11-21T01:16:39;0.57;;;0.40;;
10880;SDS011;5493;48.884;8.338;2023-11-21T01:19:06;0.87;;;0.60;;
10880;SDS011;5493;48.884;8.338;2023-11-21T01:21:32;0.73;;;0.60;;
10880;SDS011;5493;48.884;8.338;2023-11-21T01:23:59;2.63;;;0.40;;
10880;SDS011;5493;48.884;8.338;2023-11-21T01:26:25;3.60;;;0.70;;
10880;SDS011;5493;48.884;8.338;2023-11-21T01:28:53;4.80;;;0.83;;
10880;SDS011;5493;48.884;8.338;2023-11-21T01:31:20;1.67;;;0.57;;
10880;SDS011;5493;48.884;8.338;2023-11-21T01:33:46;0.67;;;0.40;;
10880;SDS011;5493;48.884;8.338;2023-11-21T01:36:13;0.50;;;0.43;;
10880;SDS011;5493;48.884;8.338;2023-11-21T01:38:40;1.07;;;0.60;;
10880;SDS011;5493;48.884;8.338;2023-11-21T01:41:07;2.47;;;0.30;;
10880;SDS011;5493;48.884;8.338;2023-11-21T01:43:36;1.77;;;0.67;;
10880;SDS011;5493;48.884;8.338;2023-11-21T01:46:04;3.13;;;0.77;;
10880;SDS011;5493;48.884;8.338;2023-11-21T01:48:32;1.33;;;0.63;;
10880;SDS011;5493;48.884;8.338;2023-11-21T01:50:59;0.83;;;0.50;;
10880;SDS011;5493;48.884;8.338;2023-11-21T01:53:26;2.93;;;0.60;;
10880;SDS011;5493;48.884;8.338;2023-11-21T01:55:55;1.93;;;0.90;;
10880;SDS011;5493;48.884;8.338;2023-11-21T01:58:22;2.40;;;0.87;;
10880;SDS011;5493;48.884;8.338;2023-11-21T02:00:49;2.23;;;0.83;;
10880;SDS011;5493;48.884;8.338;2023-11-21T02:03:17;2.07;;;0.80;;
10880;SDS011;5493;48.884;8.338;2023-11-21T02:05:44;1.80;;;0.90;;
10880;SDS011;5493;48.884;8.338;2023-11-21T02:08:11;3.90;;;0.57;;
10880;SDS011;5493;48.884;8.338;2023-11-21T02:10:38;1.20;;;0.67;;
10880;SDS011;5493;48.884;8.338;2023-11-21T02:13:05;1.43;;;0.50;;
10880;SDS011;5493;48.884;8.338;2023-11-21T02:15:32;1.70;;;0.50;;
10880;SDS011;5493;48.884;8.338;2023-11-21T02:17:59;2.53;;;0.70;;
10880;SDS011;5493;48.884;8.338;2023-11-21T02:20:27;1.97;;;0.33;;
10880;SDS011;5493;48.884;8.338;2023-11-21T02:22:56;1.10;;;0.70;;
10880;SDS011;5493;48.884;8.338;2023-11-21T02:25:24;2.27;;;0.57;;
10880;SDS011;5493;48.884;8.338;2023-11-21T02:27:51;2.43;;;0.80;;
10880;SDS011;5493;48.884;8.338;2023-11-21T02:30:19;1.70;;;0.37;;
10880;SDS011;5493;48.884;8.338;2023-11-21T02:32:46;0.83;;;0.50;;
10880;SDS011;5493;48.884;8.338;2023-11-21T02:35:13;1.83;;;0.77;;
10880;SDS011;5493;48.884;8.338;2023-11-21T02:37:40;2.67;;;0.87;;
10880;SDS011;5493;48.884;8.338;2023-11-21T02:40:09;2.43;;;0.80;;
10880;SDS011;5493;48.884;8.338;2023-11-21T02:42:38;0.77;;;0.57;;
10880;SDS011;5493;48.884;8.338;2023-11-21T02:45:06;2.77;;;0.60;;
10880;SDS011;5493;48.884;8.338;2023-11-21T02:47:33;4.37;;;0.63;;
10880;SDS011;5493;48.884;8.338;2023-11-21T02:49:59;2.30;;;0.93;;
10880;SDS011;5493;48.884;8.338;2023-11-21T02:52:26;0.70;;;0.60;;
10880;SDS011;5493;48.884;8.338;2023-11-21T02:54:52;1.07;;;0.70;;
10880;SDS011;5493;48.884;8.338;2023-11-21T02:57:20;0.70;;;0.50;;
10880;SDS011;5493;48.884;8.338;2023-11-21T02:59:47;2.97;;;0.73;;
10880;SDS011;5493;48.884;8.338;2023-11-21T03:02:13;2.53;;;0.80;;
10880;SDS011;5493;48.884;8.338;2023-11-21T03:04:40;1.13;;;0.80;;
10880;SDS011;5493;48.884;8.338;2023-11-21T03:07:07;2.73;;;1.13;;
10880;SDS011;5493;48.884;8.338;2023-11-21T03:09:34;1.20;;;0.80;;
10880;SDS011;5493;48.884;8.338;2023-11-21T03:12:01;4.93;;;1.00;;
10880;SDS011;5493;48.884;8.338;2023-11-21T03:14:29;2.43;;;0.60;;
10880;SDS011;5493;48.884;8.338;2023-11-21T03:16:55;1.87;;;0.60;;
10880;SDS011;5493;48.884;8.338;2023-11-21T03:19:22;4.63;;;1.10;;
10880;SDS011;5493;48.884;8.338;2023-11-21T03:21:48;0.83;;;0.43;;
10880;SDS011;5493;48.884;8.338;2023-11-21T03:24:15;3.67;;;0.70;;
10880;SDS011;5493;48.884;8.338;2023-11-21T03:26:44;4.80;;;0.57;;
10880;SDS011;5493;48.884;8.338;2023-11-21T03:29:10;1.37;;;0.63;;
10880;SDS011;5493;48.884;8.338;2023-11-21T03:31:38;2.77;;;0.80;;
10880;SDS011;5493;48.884;8.338;2023-11-21T03:34:05;1.80;;;0.70;;
10880;SDS011;5493;48.884;8.338;2023-11-21T03:36:32;0.73;;;0.40;;
10880;SDS011;5493;48.884;8.338;2023-11-21T03:38:58;1.47;;;0.63;;
10880;SDS011;5493;48.884;8.338;2023-11-21T03:41:25;1.53;;;0.70;;
10880;SDS011;5493;48.884;8.338;2023-11-21T03:43:51;3.30;;;0.70;;
10880;SDS011;5493;48.884;8.338;2023-11-21T03:46:18;0.97;;;0.67;;
10880;SDS011;5493;48.884;8.338;2023-11-21T03:48:46;2.07;;;0.70;;
10880;SDS011;5493;48.884;8.338;2023-11-21T03:51:12;1.07;;;0.60;;
10880;SDS011;5493;48.884;8.338;2023-11-21T03:53:39;1.23;;;0.60;;
10880;SDS011;5493;48.884;8.338;2023-11-21T03:56:06;2.80;;;0.77;;
10880;SDS011;5493;48.884;8.338;2023-11-21T03:58:33;2.07;;;0.63;;
10880;SDS011;5493;48.884;8.338;2023-11-21T04:00:59;1.80;;;0.80;;
10880;SDS011;5493;48.884;8.338;2023-11-21T04:03:26;1.20;;;0.63;;
10880;SDS011;5493;48.884;8.338;2023-11-21T04:05:54;1.07;;;0.60;;
10880;SDS011;5493;48.884;8.338;2023-11-21T04:08:21;0.93;;;0.50;;
10880;SDS011;5493;48.884;8.338;2023-11-21T04:10:47;2.67;;;0.60;;
10880;SDS011;5493;48.884;8.338;2023-11-21T04:13:14;1.47;;;0.83;;
10880;SDS011;5493;48.884;8.338;2023-11-21T04:15:41;2.90;;;0.77;;
10880;SDS011;5493;48.884;8.338;2023-11-21T04:18:07;3.13;;;0.80;;
10880;SDS011;5493;48.884;8.338;2023-11-21T04:20:34;1.20;;;0.53;;
10880;SDS011;5493;48.884;8.338;2023-11-21T04:23:02;0.60;;;0.50;;
10880;SDS011;5493;48.884;8.338;2023-11-21T04:25:29;1.60;;;0.63;;
10880;SDS011;5493;48.884;8.338;2023-11-21T04:27:55;4.60;;;0.73;;
10880;SDS011;5493;48.884;8.338;2023-11-21T04:30:22;1.37;;;0.70;;
10880;SDS011;5493;48.884;8.338;2023-11-21T04:32:48;1.53;;;0.80;;
10880;SDS011;5493;48.884;8.338;2023-11-21T04:35:15;3.40;;;1.00;;
10880;SDS011;5493;48.884;8.338;2023-11-21T04:37:42;1.23;;;0.57;;
10880;SDS011;5493;48.884;8.338;2023-11-21T04:40:11;0.83;;;0.50;;
10880;SDS011;5493;48.884;8.338;2023-11-21T04:42:38;1.27;;;0.70;;
10880;SDS011;5493;48.884;8.338;2023-11-21T04:45:05;3.70;;;1.00;;
10880;SDS011;5493;48.884;8.338;2023-11-21T04:47:34;2.10;;;0.80;;
10880;SDS011;5493;48.884;8.338;2023-11-21T04:50:01;1.20;;;0.50;;
10880;SDS011;5493;48.884;8.338;2023-11-21T04:52:29;3.53;;;0.73;;
10880;SDS011;5493;48.884;8.338;2023-11-21T04:54:56;0.97;;;0.50;;
10880;SDS011;5493;48.884;8.338;2023-11-21T04:57:24;0.73;;;0.57;;
10880;SDS011;5493;48.884;8.338;2023-11-21T04:59:51;2.60;;;0.70;;
10880;SDS011;5493;48.884;8.338;2023-11-21T05:02:17;1.00;;;0.60;;
10880;SDS011;5493;48.884;8.338;2023-11-21T05:04:46;0.63;;;0.60;;
10880;SDS011;5493;48.884;8.338;2023-11-21T05:07:12;2.83;;;0.60;;
10880;SDS011;5493;48.884;8.338;2023-11-21T05:09:40;2.70;;;0.70;;
10880;SDS011;5493;48.884;8.338;2023-11-21T05:12:11;2.97;;;1.00;;
10880;SDS011;5493;48.884;8.338;2023-11-21T05:14:39;2.50;;;0.90;;
10880;SDS011;5493;48.884;8.338;2023-11-21T05:17:05;1.00;;;0.73;;
10880;SDS011;5493;48.884;8.338;2023-11-21T05:19:33;2.10;;;0.57;;
10880;SDS011;5493;48.884;8.338;2023-11-21T05:21:59;1.43;;;0.77;;
10880;SDS011;5493;48.884;8.338;2023-11-21T05:24:26;1.77;;;0.93;;
10880;SDS011;5493;48.884;8.338;2023-11-21T05:26:53;3.40;;;0.80;;
10880;SDS011;5493;48.884;8.338;2023-11-21T05:29:21;4.20;;;1.07;;
10880;SDS011;5493;48.884;8.338;2023-11-21T05:31:48;1.10;;;0.77;;
10880;SDS011;5493;48.884;8.338;2023-11-21T05:34:15;1.03;;;0.90;;
10880;SDS011;5493;48.884;8.338;2023-11-21T05:36:42;1.40;;;1.27;;
10880;SDS011;5493;48.884;8.338;2023-11-21T05:39:09;1.53;;;0.90;;
10880;SDS011;5493;48.884;8.338;2023-11-21T05:41:36;2.33;;;1.10;;
10880;SDS011;5493;48.884;8.338;2023-11-21T05:44:03;1.60;;;1.07;;
10880;SDS011;5493;48.884;8.338;2023-11-21T05:46:30;1.60;;;0.80;;
10880;SDS011;5493;48.884;8.338;2023-11-21T05:48:58;1.70;;;1.10;;
10880;SDS011;5493;48.884;8.338;2023-11-21T05:51:24;3.30;;;1.33;;
10880;SDS011;5493;48.884;8.338;2023-11-21T05:53:51;1.70;;;1.13;;
10880;SDS011;5493;48.884;8.338;2023-11-21T05:56:17;1.30;;;0.90;;
10880;SDS011;5493;48.884;8.338;2023-11-21T05:58:44;1.30;;;1.17;;
10880;SDS011;5493;48.884;8.338;2023-11-21T06:01:10;1.00;;;0.70;;
10880;SDS011;5493;48.884;8.338;2023-11-21T06:03:38;2.27;;;1.30;;
10880;SDS011;5493;48.884;8.338;2023-11-21T06:06:06;2.60;;;1.50;;
10880;SDS011;5493;48.884;8.338;2023-11-21T06:08:33;1.40;;;1.10;;
10880;SDS011;5493;48.884;8.338;2023-11-21T06:10:59;1.63;;;0.90;;
10880;SDS011;5493;48.884;8.338;2023-11-21T06:13:26;1.97;;;0.93;;
10880;SDS011;5493;48.884;8.338;2023-11-21T06:15:53;1.67;;;1.00;;
10880;SDS011;5493;48.884;8.338;2023-11-21T06:18:20;0.77;;;0.73;;
10880;SDS011;5493;48.884;8.338;2023-11-21T06:20:46;0.80;;;0.80;;
10880;SDS011;5493;48.884;8.338;2023-11-21T06:23:14;4.20;;;1.43;;
10880;SDS011;5493;48.884;8.338;2023-11-21T06:25:41;2.83;;;1.10;;
10880;SDS011;5493;48.884;8.338;2023-11-21T06:28:08;2.50;;;0.87;;
10880;SDS011;5493;48.884;8.338;2023-11-21T06:30:35;1.70;;;1.00;;
10880;SDS011;5493;48.884;8.338;2023-11-21T06:33:01;1.50;;;1.20;;
10880;SDS011;5493;48.884;8.338;2023-11-21T06:35:28;1.20;;;1.10;;
10880;SDS011;5493;48.884;8.338;2023-11-21T06:37:57;1.77;;;1.30;;
10880;SDS011;5493;48.884;8.338;2023-11-21T06:40:25;0.93;;;0.93;;
10880;SDS011;5493;48.884;8.338;2023-11-21T06:42:52;4.23;;;1.17;;
10880;SDS011;5493;48.884;8.338;2023-11-21T06:45:18;1.83;;;1.47;;
10880;SDS011;5493;48.884;8.338;2023-11-21T06:47:46;1.90;;;1.50;;
10880;SDS011;5493;48.884;8.338;2023-11-21T06:50:13;1.83;;;1.30;;
10880;SDS011;5493;48.884;8.338;2023-11-21T06:52:40;1.70;;;1.23;;
10880;SDS011;5493;48.884;8.338;2023-11-21T06:55:07;1.70;;;1.57;;
10880;SDS011;5493;48.884;8.338;2023-11-21T06:57:36;1.80;;;1.30;;
10880;SDS011;5493;48.884;8.338;2023-11-21T07:00:03;2.03;;;1.53;;
10880;SDS011;5493;48.884;8.338;2023-11-21T07:02:34;4.27;;;1.63;;
10880;SDS011;5493;48.884;8.338;2023-11-21T07:05:00;2.20;;;1.23;;
10880;SDS011;5493;48.884;8.338;2023-11-21T07:07:27;3.20;;;2.27;;
10880;SDS011;5493;48.884;8.338;2023-11-21T07:09:53;1.73;;;1.10;;
10880;SDS011;5493;48.884;8.338;2023-11-21T07:12:20;2.47;;;1.50;;
10880;SDS011;5493;48.884;8.338;2023-11-21T07:14:50;1.50;;;0.97;;
10880;SDS011;5493;48.884;8.338;2023-11-21T07:17:16;1.50;;;1.30;;
10880;SDS011;5493;48.884;8.338;2023-11-21T07:19:43;1.37;;;1.20;;
10880;SDS011;5493;48.884;8.338;2023-11-21T07:22:10;1.77;;;1.63;;
10880;SDS011;5493;48.884;8.338;2023-11-21T07:24:36;2.77;;;1.90;;
10880;SDS011;5493;48.884;8.338;2023-11-21T07:27:03;4.27;;;1.70;;
10880;SDS011;5493;48.884;8.338;2023-11-21T07:29:30;1.93;;;1.67;;
10880;SDS011;5493;48.884;8.338;2023-11-21T07:31:59;2.17;;;1.50;;
10880;SDS011;5493;48.884;8.338;2023-11-21T07:34:26;2.57;;;1.60;;
10880;SDS011;5493;48.884;8.338;2023-11-21T07:36:52;2.53;;;1.40;;
10880;SDS011;5493;48.884;8.338;2023-11-21T07:39:19;3.97;;;2.47;;
10880;SDS011;5493;48.884;8.338;2023-11-21T07:41:46;2.97;;;2.17;;
10880;SDS011;5493;48.884;8.338;2023-11-21T07:44:14;3.80;;;2.07;;
10880;SDS011;5493;48.884;8.338;2023-11-21T07:46:41;5.23;;;2.77;;
10880;SDS011;5493;48.884;8.338;2023-11-21T07:49:09;4.93;;;2.37;;
10880;SDS011;5493;48.884;8.338;2023-11-21T07:51:36;3.47;;;2.37;;
10880;SDS011;5493;48.884;8.338;2023-11-21T07:54:02;3.97;;;2.90;;
10880;SDS011;5493;48.884;8.338;2023-11-21T07:56:30;5.03;;;2.90;;
10880;SDS011;5493;48.884;8.338;2023-11-21T07:58:57;4.67;;;2.77;;
10880;SDS011;5493;48.884;8.338;2023-11-21T08:01:23;5.73;;;3.00;;
10880;SDS011;5493;48.884;8.338;2023-11-21T08:03:50;2.47;;;2.00;;
10880;SDS011;5493;48.884;8.338;2023-11-21T08:06:19;3.33;;;2.30;;
10880;SDS011;5493;48.884;8.338;2023-11-21T08:08:45;2.73;;;2.23;;
10880;SDS011;5493;48.884;8.338;2023-11-21T08:11:12;4.63;;;2.60;;
10880;SDS011;5493;48.884;8.338;2023-11-21T08:13:38;2.93;;;1.30;;
10880;SDS011;5493;48.884;8.338;2023-11-21T08:16:05;3.63;;;1.80;;
10880;SDS011;5493;48.884;8.338;2023-11-21T08:18:33;2.47;;;1.80;;
10880;SDS011;5493;48.884;8.338;2023-11-21T08:21:00;3.77;;;1.53;;
10880;SDS011;5493;48.884;8.338;2023-11-21T08:23:29;2.07;;;1.60;;
10880;SDS011;5493;48.884;8.338;2023-11-21T08:25:56;1.93;;;1.33;;
10880;SDS011;5493;48.884;8.338;2023-11-21T08:28:22;2.23;;;1.13;;
10880;SDS011;5493;48.884;8.338;2023-11-21T08:30:50;2.93;;;1.30;;
10880;SDS011;5493;48.884;8.338;2023-11-21T08:33:17;2.17;;;1.57;;
10880;SDS011;5493;48.884;8.338;2023-11-21T08:35:44;2.40;;;1.33;;
10880;SDS011;5493;48.884;8.338;2023-11-21T08:38:11;1.93;;;1.33;;
10880;SDS011;5493;48.884;8.338;2023-11-21T08:40:39;2.83;;;1.60;;
10880;SDS011;5493;48.884;8.338;2023-11-21T08:43:06;1.87;;;1.30;;
10880;SDS011;5493;48.884;8.338;2023-11-21T08:45:33;3.57;;;2.30;;
10880;SDS011;5493;48.884;8.338;2023-11-21T08:48:00;2.70;;;1.73;;
10880;SDS011;5493;48.884;8.338;2023-11-21T08:50:26;1.53;;;1.13;;
10880;SDS011;5493;48.884;8.338;2023-11-21T08:52:53;2.63;;;1.73;;
10880;SDS011;5493;48.884;8.338;2023-11-21T08:55:20;1.83;;;1.20;;
10880;SDS011;5493;48.884;8.338;2023-11-21T08:57:52;1.60;;;1.50;;
10880;SDS011;5493;48.884;8.338;2023-11-21T09:00:18;3.27;;;1.33;;
10880;SDS011;5493;48.884;8.338;2023-11-21T09:02:45;2.03;;;1.60;;
10880;SDS011;5493;48.884;8.338;2023-11-21T09:05:12;1.57;;;1.40;;
10880;SDS011;5493;48.884;8.338;2023-11-21T09:07:40;2.53;;;1.73;;
10880;SDS011;5493;48.884;8.338;2023-11-21T09:10:08;2.17;;;0.90;;
10880;SDS011;5493;48.884;8.338;2023-11-21T09:12:35;1.77;;;1.20;;
10880;SDS011;5493;48.884;8.338;2023-11-21T09:15:04;1.17;;;0.93;;
10880;SDS011;5493;48.884;8.338;2023-11-21T09:17:32;2.70;;;1.30;;
10880;SDS011;5493;48.884;8.338;2023-11-21T09:19:59;1.13;;;1.00;;
10880;SDS011;5493;48.884;8.338;2023-11-21T09:22:26;4.63;;;1.03;;
10880;SDS011;5493;48.884;8.338;2023-11-21T09:24:54;1.67;;;1.30;;
10880;SDS011;5493;48.884;8.338;2023-11-21T09:27:21;3.07;;;1.70;;
10880;SDS011;5493;48.884;8.338;2023-11-21T09:29:48;2.50;;;2.07;;
10880;SDS011;5493;48.884;8.338;2023-11-21T09:32:15;3.27;;;2.20;;
10880;SDS011;5493;48.884;8.338;2023-11-21T09:34:43;2.17;;;1.80;;
10880;SDS011;5493;48.884;8.338;2023-11-21T09:37:10;2.20;;;1.70;;
10880;SDS011;5493;48.884;8.338;2023-11-21T09:39:36;2.73;;;2.03;;
10880;SDS011;5493;48.884;8.338;2023-11-21T09:42:04;5.23;;;2.70;;
10880;SDS011;5493;48.884;8.338;2023-11-21T09:44:40;2.70;;;2.20;;
10880;SDS011;5493;48.884;8.338;2023-11-21T09:47:14;4.07;;;2.60;;
10880;SDS011;5493;48.884;8.338;2023-11-21T09:49:42;4.10;;;2.70;;
10880;SDS011;5493;48.884;8.338;2023-11-21T09:52:15;3.47;;;2.53;;
10880;SDS011;5493;48.884;8.338;2023-11-21T09:54:50;5.30;;;2.40;;
10880;SDS011;5493;48.884;8.338;2023-11-21T09:57:18;4.00;;;2.37;;
10880;SDS011;5493;48.884;8.338;2023-11-21T09:59:46;3.77;;;3.07;;
10880;SDS011;5493;48.884;8.338;2023-11-21T10:02:16;3.53;;;2.53;;
10880;SDS011;5493;48.884;8.338;2023-11-21T10:04:45;3.03;;;2.17;;
10880;SDS011;5493;48.884;8.338;2023-11-21T10:07:13;2.77;;;2.43;;
10880;SDS011;5493;48.884;8.338;2023-11-21T10:09:42;4.00;;;2.40;;
10880;SDS011;5493;48.884;8.338;2023-11-21T10:12:09;2.63;;;2.17;;
10880;SDS011;5493;48.884;8.338;2023-11-21T10:14:37;2.83;;;2.37;;
10880;SDS011;5493;48.884;8.338;2023-11-21T10:17:07;4.73;;;2.70;;
10880;SDS011;5493;48.884;8.338;2023-11-21T10:19:38;4.13;;;2.60;;
10880;SDS011;5493;48.884;8.338;2023-11-21T10:22:05;5.87;;;3.27;;
10880;SDS011;5493;48.884;8.338;2023-11-21T10:24:33;10.87;;;5.57;;
10880;SDS011;5493;48.884;8.338;2023-11-21T10:27:00;5.17;;;3.63;;
10880;SDS011;5493;48.884;8.338;2023-11-21T10:29:28;5.77;;;3.30;;
10880;SDS011;5493;48.884;8.338;2023-11-21T10:31:55;3.73;;;3.00;;
10880;SDS011;5493;48.884;8.338;2023-11-21T10:34:23;7.60;;;4.40;;
10880;SDS011;5493;48.884;8.338;2023-11-21T10:36:54;7.33;;;4.40;;
10880;SDS011;5493;48.884;8.338;2023-11-21T10:39:23;6.13;;;4.17;;
10880;SDS011;5493;48.884;8.338;2023-11-21T10:41:54;9.60;;;5.30;;
10880;SDS011;5493;48.884;8.338;2023-11-21T10:44:21;8.50;;;4.30;;
10880;SDS011;5493;48.884;8.338;2023-11-21T10:46:49;10.13;;;4.50;;
10880;SDS011;5493;48.884;8.338;2023-11-21T10:49:19;8.33;;;5.00;;
10880;SDS011;5493;48.884;8.338;2023-11-21T10:51:46;7.20;;;4.63;;
10880;SDS011;5493;48.884;8.338;2023-11-21T10:54:18;5.70;;;3.50;;
10880;SDS011;5493;48.884;8.338;2023-11-21T10:56:45;9.03;;;3.60;;
10880;SDS011;5493;48.884;8.338;2023-11-21T10:59:16;7.30;;;3.93;;
10880;SDS011;5493;48.884;8.338;2023-11-21T11:01:44;7.53;;;3.57;;
10880;SDS011;5493;48.884;8.338;2023-11-21T11:04:11;5.63;;;3.83;;
10880;SDS011;5493;48.884;8.338;2023-11-21T11:06:42;8.20;;;3.87;;
10880;SDS011;5493;48.884;8.338;2023-11-21T11:09:10;5.27;;;3.67;;
10880;SDS011;5493;48.884;8.338;2023-11-21T11:11:42;6.23;;;4.00;;
10880;SDS011;5493;48.884;8.338;2023-11-21T11:14:19;7.90;;;5.00;;
10880;SDS011;5493;48.884;8.338;2023-11-21T11:16:50;6.37;;;3.80;;
10880;SDS011;5493;48.884;8.338;2023-11-21T11:19:19;4.93;;;3.40;;
10880;SDS011;5493;48.884;8.338;2023-11-21T11:21:49;8.63;;;4.20;;
10880;SDS011;5493;48.884;8.338;2023-11-21T11:24:44;3.20;;;2.60;;
10880;SDS011;5493;48.884;8.338;2023-11-21T11:27:30;4.87;;;3.47;;
10880;SDS011;5493;48.884;8.338;2023-11-21T11:30:09;3.03;;;2.40;;
10880;SDS011;5493;48.884;8.338;2023-11-21T11:32:43;8.67;;;3.00;;
10880;SDS011;5493;48.884;8.338;2023-11-21T11:35:26;3.97;;;2.80;;
10880;SDS011;5493;48.884;8.338;2023-11-21T11:37:59;6.27;;;3.57;;
10880;SDS011;5493;48.884;8.338;2023-11-21T11:40:38;7.43;;;4.33;;
10880;SDS011;5493;48.884;8.338;2023-11-21T11:43:06;5.50;;;3.47;;
10880;SDS011;5493;48.884;8.338;2023-11-21T11:45:33;7.53;;;4.00;;
10880;SDS011;5493;48.884;8.338;2023-11-21T11:48:02;6.17;;;3.30;;
10880;SDS011;5493;48.884;8.338;2023-11-21T11:50:31;7.07;;;4.03;;
10880;SDS011;5493;48.884;8.338;2023-11-21T11:53:12;6.13;;;3.50;;
10880;SDS011;5493;48.884;8.338;2023-11-21T11:55:40;5.67;;;2.53;;
10880;SDS011;5493;48.884;8.338;2023-11-21T11:58:08;3.33;;;2.60;;
10880;SDS011;5493;48.884;8.338;2023-11-21T12:00:35;3.63;;;2.37;;
10880;SDS011;5493;48.884;8.338;2023-11-21T12:03:05;3.90;;;2.40;;
10880;SDS011;5493;48.884;8.338;2023-11-21T12:05:33;6.63;;;3.13;;
10880;SDS011;5493;48.884;8.338;2023-11-21T12:08:06;4.40;;;3.40;;
10880;SDS011;5493;48.884;8.338;2023-11-21T12:10:34;4.77;;;3.40;;
10880;SDS011;5493;48.884;8.338;2023-11-21T12:13:03;6.60;;;4.00;;
10880;SDS011;5493;48.884;8.338;2023-11-21T12:15:33;7.07;;;4.27;;
10880;SDS011;5493;48.884;8.338;2023-11-21T12:18:00;7.40;;;3.90;;
10880;SDS011;5493;48.884;8.338;2023-11-21T12:20:27;8.67;;;4.80;;
10880;SDS011;5493;48.884;8.338;2023-11-21T12:22:55;6.40;;;4.10;;
10880;SDS011;5493;48.884;8.338;2023-11-21T12:25:25;10.20;;;4.50;;
10880;SDS011;5493;48.884;8.338;2023-11-21T12:27:54;16.13;;;6.87;;
10880;SDS011;5493;48.884;8.338;2023-11-21T12:30:22;9.87;;;4.77;;
10880;SDS011;5493;48.884;8.338;2023-11-21T12:32:54;6.33;;;3.40;;
10880;SDS011;5493;48.884;8.338;2023-11-21T12:35:22;4.00;;;3.17;;
10880;SDS011;5493;48.884;8.338;2023-11-21T12:37:50;6.33;;;3.50;;
10880;SDS011;5493;48.884;8.338;2023-11-21T12:40:18;8.87;;;4.97;;
10880;SDS011;5493;48.884;8.338;2023-11-21T12:42:48;5.57;;;3.77;;
10880;SDS011;5493;48.884;8.338;2023-11-21T12:45:19;3.50;;;3.00;;
10880;SDS011;5493;48.884;8.338;2023-11-21T12:47:48;7.30;;;3.57;;
10880;SDS011;5493;48.884;8.338;2023-11-21T12:50:19;4.93;;;3.20;;
10880;SDS011;5493;48.884;8.338;2023-11-21T12:52:48;6.20;;;3.07;;
10880;SDS011;5493;48.884;8.338;2023-11-21T12:55:17;5.83;;;3.87;;
10880;SDS011;5493;48.884;8.338;2023-11-21T12:57:47;5.10;;;3.50;;
10880;SDS011;5493;48.884;8.338;2023-11-21T13:00:16;5.93;;;3.50;;
10880;SDS011;5493;48.884;8.338;2023-11-21T13:02:52;5.17;;;4.13;;
10880;SDS011;5493;48.884;8.338;2023-11-21T13:05:26;6.70;;;4.00;;
10880;SDS011;5493;48.884;8.338;2023-11-21T13:07:54;4.27;;;3.47;;
10880;SDS011;5493;48.884;8.338;2023-11-21T13:10:22;4.00;;;3.20;;
10880;SDS011;5493;48.884;8.338;2023-11-21T13:12:51;4.03;;;3.30;;
10880;SDS011;5493;48.884;8.338;2023-11-21T13:15:20;3.20;;;2.50;;
10880;SDS011;5493;48.884;8.338;2023-11-21T13:17:46;3.83;;;2.57;;
10880;SDS011;5493;48.884;8.338;2023-11-21T13:20:13;3.13;;;2.70;;
10880;SDS011;5493;48.884;8.338;2023-11-21T13:22:46;3.43;;;2.90;;
10880;SDS011;5493;48.884;8.338;2023-11-21T13:25:14;4.20;;;2.93;;
10880;SDS011;5493;48.884;8.338;2023-11-21T13:27:42;5.83;;;2.83;;
10880;SDS011;5493;48.884;8.338;2023-11-21T13:30:11;5.17;;;3.00;;
10880;SDS011;5493;48.884;8.338;2023-11-21T13:32:40;5.40;;;3.30;;
10880;SDS011;5493;48.884;8.338;2023-11-21T13:35:07;4.33;;;3.27;;
10880;SDS011;5493;48.884;8.338;2023-11-21T13:37:40;4.37;;;3.20;;
10880;SDS011;5493;48.884;8.338;2023-11-21T13:40:09;4.20;;;3.30;;
10880;SDS011;5493;48.884;8.338;2023-11-21T13:42:40;4.20;;;3.17;;
10880;SDS011;5493;48.884;8.338;2023-11-21T13:45:08;3.97;;;3.43;;
10880;SDS011;5493;48.884;8.338;2023-11-21T13:47:35;3.50;;;2.93;;
10880;SDS011;5493;48.884;8.338;2023-11-21T13:50:03;3.87;;;3.00;;
10880;SDS011;5493;48.884;8.338;2023-11-21T13:52:33;4.10;;;3.40;;
10880;SDS011;5493;48.884;8.338;2023-11-21T13:55:01;4.27;;;3.03;;
10880;SDS011;5493;48.884;8.338;2023-11-21T13:57:33;3.50;;;2.97;;
10880;SDS011;5493;48.884;8.338;2023-11-21T13:59:59;4.80;;;3.43;;
10880;SDS011;5493;48.884;8.338;2023-11-21T14:02:26;5.50;;;3.20;;
10880;SDS011;5493;48.884;8.338;2023-11-21T14:04:59;3.50;;;3.07;;
10880;SDS011;5493;48.884;8.338;2023-11-21T14:07:34;6.30;;;3.80;;
10880;SDS011;5493;48.884;8.338;2023-11-21T14:10:00;3.67;;;2.57;;
10880;SDS011;5493;48.884;8.338;2023-11-21T14:12:28;3.83;;;3.10;;
10880;SDS011;5493;48.884;8.338;2023-11-21T14:15:00;5.67;;;3.20;;
10880;SDS011;5493;48.884;8.338;2023-11-21T14:17:28;5.20;;;2.90;;
10880;SDS011;5493;48.884;8.338;2023-11-21T14:19:54;4.70;;;3.70;;
10880;SDS011;5493;48.884;8.338;2023-11-21T14:22:21;3.27;;;2.97;;
10880;SDS011;5493;48.884;8.338;2023-11-21T14:24:47;3.80;;;2.77;;
10880;SDS011;5493;48.884;8.338;2023-11-21T14:27:17;3.13;;;2.60;;
10880;SDS011;5493;48.884;8.338;2023-11-21T14:29:44;3.93;;;2.87;;
10880;SDS011;5493;48.884;8.338;2023-11-21T14:32:12;4.53;;;2.73;;
10880;SDS011;5493;48.884;8.338;2023-11-21T14:34:39;2.80;;;2.50;;
10880;SDS011;5493;48.884;8.338;2023-11-21T14:37:08;3.17;;;2.50;;
10880;SDS011;5493;48.884;8.338;2023-11-21T14:39:34;6.77;;;2.77;;
10880;SDS011;5493;48.884;8.338;2023-11-21T14:42:06;2.60;;;2.40;;
10880;SDS011;5493;48.884;8.338;2023-11-21T14:44:33;2.63;;;2.43;;
10880;SDS011;5493;48.884;8.338;2023-11-21T14:47:03;3.70;;;2.30;;
10880;SDS011;5493;48.884;8.338;2023-11-21T14:49:40;3.10;;;2.33;;
10880;SDS011;5493;48.884;8.338;2023-11-21T14:52:17;2.83;;;2.37;;
10880;SDS011;5493;48.884;8.338;2023-11-21T14:54:57;3.60;;;2.87;;
10880;SDS011;5493;48.884;8.338;2023-11-21T14:57:44;2.90;;;2.53;;
10880;SDS011;5493;48.884;8.338;2023-11-21T15:00:15;3.90;;;2.57;;
10880;SDS011;5493;48.884;8.338;2023-11-21T15:03:03;4.43;;;2.37;;
10880;SDS011;5493;48.884;8.338;2023-11-21T15:05:31;3.10;;;2.57;;